createdAt,value
2022-10-17T00:00:05.920Z,11.15
2022-10-17T00:02:32.372Z,8.10
2022-10-17T00:04:58.791Z,7.57
2022-10-17T00:07:25.632Z,7.60
2022-10-17T00:09:52.266Z,11.55
2022-10-17T00:12:18.717Z,10.50
2022-10-17T00:14:45.243Z,8.05
2022-10-17T00:17:11.679Z,10.80
2022-10-17T00:19:38.114Z,8.38
2022-10-17T00:22:04.606Z,10.15
2022-10-17T00:24:31.773Z,9.70
2022-10-17T00:26:58.356Z,9.45
2022-10-17T00:29:24.888Z,8.70
2022-10-17T00:31:55.961Z,10.43
2022-10-17T00:34:23.268Z,10.32
2022-10-17T00:36:49.883Z,9.55
2022-10-17T00:39:16.528Z,10.35
2022-10-17T00:41:43.027Z,9.35
2022-10-17T00:44:31.186Z,10.25
2022-10-17T00:46:59.670Z,9.93
2022-10-17T00:49:28.852Z,8.00
2022-10-17T00:52:06.076Z,10.05
2022-10-17T00:54:35.447Z,10.90
2022-10-17T00:57:02.399Z,10.25
2022-10-17T00:59:30.906Z,7.78
2022-10-17T01:02:03.615Z,9.57
2022-10-17T01:04:30.427Z,10.45
2022-10-17T01:06:56.864Z,12.23
2022-10-17T01:09:24.130Z,14.00
2022-10-17T01:12:20.482Z,11.18
2022-10-17T01:15:13.786Z,9.63
2022-10-17T01:18:15.695Z,9.82
2022-10-17T01:21:10.042Z,10.98
2022-10-17T01:24:04.630Z,11.73
2022-10-17T01:26:50.232Z,11.93
2022-10-17T01:29:33.371Z,9.98
2022-10-17T01:32:16.798Z,10.02
2022-10-17T01:34:55.533Z,7.55
2022-10-17T01:37:33.343Z,11.70
2022-10-17T01:40:09.094Z,13.05
2022-10-17T01:42:58.504Z,7.55
2022-10-17T01:45:32.749Z,13.30
2022-10-17T01:50:53.642Z,8.50
2022-10-17T01:53:29.876Z,7.88
2022-10-17T01:56:01.088Z,9.20
2022-10-17T01:58:32.648Z,8.48
2022-10-17T02:01:03.765Z,10.65
2022-10-17T02:03:32.357Z,10.65
2022-10-17T02:05:58.751Z,8.65
2022-10-17T02:08:27.560Z,10.57
2022-10-17T02:11:01.263Z,8.85
2022-10-17T02:13:42.952Z,12.10
2022-10-17T02:17:06.962Z,13.63
2022-10-17T02:20:03.022Z,12.88
2022-10-17T02:22:38.268Z,11.15
2022-10-17T02:25:25.560Z,8.45
2022-10-17T02:27:58.961Z,10.95
2022-10-17T02:30:41.260Z,9.40
2022-10-17T02:33:14.487Z,11.82
2022-10-17T02:35:49.871Z,11.25
2022-10-17T02:38:16.520Z,13.35
2022-10-17T02:40:45.924Z,12.35
2022-10-17T02:43:13.168Z,10.95
2022-10-17T02:45:40.482Z,11.52
2022-10-17T02:48:13.802Z,11.82
2022-10-17T02:51:04.828Z,11.73
2022-10-17T02:53:52.623Z,12.52
2022-10-17T02:56:21.236Z,14.93
2022-10-17T02:58:55.876Z,14.98
2022-10-17T03:01:22.577Z,11.32
2022-10-17T03:03:49.130Z,13.57
2022-10-17T03:06:15.933Z,13.90
2022-10-17T03:08:42.514Z,12.05
2022-10-17T03:11:09.097Z,12.65
2022-10-17T03:13:38.991Z,12.27
2022-10-17T03:16:06.562Z,12.43
2022-10-17T03:18:33.091Z,13.20
2022-10-17T03:20:59.524Z,13.48
2022-10-17T03:23:25.927Z,12.18
2022-10-17T03:25:52.385Z,14.73
2022-10-17T03:28:18.831Z,11.77
2022-10-17T03:30:45.257Z,14.38
2022-10-17T03:33:11.650Z,14.90
2022-10-17T03:35:40.286Z,11.60
2022-10-17T03:38:06.841Z,13.27
2022-10-17T03:40:33.226Z,13.65
2022-10-17T03:42:59.635Z,15.35
2022-10-17T03:45:26.036Z,12.10
2022-10-17T03:47:52.498Z,13.52
2022-10-17T03:50:18.979Z,13.65
2022-10-17T03:52:49.513Z,11.65
2022-10-17T03:55:16.657Z,12.27
2022-10-17T03:57:45.414Z,10.77
2022-10-17T04:00:13.012Z,13.10
2022-10-17T04:02:39.559Z,12.77
2022-10-17T04:05:06.606Z,10.98
2022-10-17T04:07:33.052Z,11.07
2022-10-17T04:09:59.468Z,12.20
2022-10-17T04:12:25.936Z,12.27
2022-10-17T04:14:52.401Z,11.65
2022-10-17T04:17:18.907Z,11.88
2022-10-17T04:19:45.445Z,11.88
2022-10-17T04:22:11.932Z,11.95
2022-10-17T04:24:38.391Z,12.10
2022-10-17T04:27:04.806Z,10.85
2022-10-17T04:29:31.347Z,17.08
2022-10-17T04:31:57.825Z,11.40
2022-10-17T04:34:24.512Z,10.50
2022-10-17T04:36:51.863Z,10.50
2022-10-17T04:39:18.491Z,8.45
2022-10-17T04:41:45.151Z,10.43
2022-10-17T04:44:11.997Z,11.10
2022-10-17T04:46:38.518Z,11.13
2022-10-17T04:49:04.977Z,10.00
2022-10-17T04:51:31.463Z,14.00
2022-10-17T04:53:57.910Z,13.10
2022-10-17T04:56:24.774Z,9.82
2022-10-17T04:58:51.936Z,8.68
2022-10-17T05:01:20.758Z,16.95
2022-10-17T05:03:50.195Z,8.00
2022-10-17T05:06:23.094Z,13.07
2022-10-17T05:08:49.948Z,13.52
2022-10-17T05:11:28.858Z,13.13
2022-10-17T05:13:57.988Z,13.38
2022-10-17T05:16:25.692Z,9.13
2022-10-17T05:18:54.348Z,10.95
2022-10-17T05:21:22.491Z,9.93
2022-10-17T05:23:49.769Z,11.20
2022-10-17T05:26:16.492Z,7.60
2022-10-17T05:28:42.971Z,9.73
2022-10-17T05:31:11.356Z,7.78
2022-10-17T05:33:39.040Z,9.98
2022-10-17T05:36:07.015Z,7.78
2022-10-17T05:41:01.661Z,9.35
2022-10-17T05:45:55.224Z,8.23
2022-10-17T05:48:23.075Z,8.38
2022-10-17T05:50:50.000Z,11.32
2022-10-17T05:53:17.340Z,11.35
2022-10-17T05:55:43.744Z,10.10
2022-10-17T05:58:17.616Z,11.52
2022-10-17T06:00:48.805Z,10.18
2022-10-17T06:03:15.245Z,14.30
2022-10-17T06:05:41.828Z,7.55
2022-10-17T06:08:08.369Z,7.78
2022-10-17T06:10:34.879Z,10.57
2022-10-17T06:13:01.428Z,7.72
2022-10-17T06:15:27.877Z,9.32
2022-10-17T06:17:54.320Z,8.38
2022-10-17T06:20:20.878Z,10.35
2022-10-17T06:22:47.276Z,9.18
2022-10-17T06:25:13.813Z,9.85
2022-10-17T06:27:40.304Z,8.02
2022-10-17T06:30:07.884Z,9.40
2022-10-17T06:32:34.284Z,12.88
2022-10-17T06:35:00.712Z,9.40
2022-10-17T06:37:35.314Z,9.98
2022-10-17T06:40:03.483Z,8.25
2022-10-17T06:42:29.920Z,7.43
2022-10-17T06:44:56.352Z,10.82
2022-10-17T06:47:22.874Z,7.55
2022-10-17T06:49:49.263Z,10.63
2022-10-17T06:52:17.068Z,9.30
2022-10-17T06:54:44.392Z,14.57
2022-10-17T06:57:11.018Z,11.07
2022-10-17T06:59:37.497Z,10.98
2022-10-17T07:02:05.322Z,9.05
2022-10-17T07:04:32.057Z,10.00
2022-10-17T07:09:31.142Z,11.93
2022-10-17T07:11:57.654Z,10.18
2022-10-17T07:14:26.101Z,12.90
2022-10-17T07:16:52.566Z,8.10
2022-10-17T07:19:19.027Z,8.35
2022-10-17T07:21:45.565Z,10.90
2022-10-17T07:24:12.930Z,13.93
2022-10-17T07:26:39.431Z,11.13
2022-10-17T07:29:07.303Z,9.32
2022-10-17T07:34:00.846Z,13.90
2022-10-17T07:36:27.345Z,9.25
2022-10-17T07:38:53.823Z,14.05
2022-10-17T07:41:21.781Z,9.07
2022-10-17T07:43:49.121Z,11.95
2022-10-17T07:46:15.565Z,12.00
2022-10-17T07:48:42.036Z,10.68
2022-10-17T07:51:10.174Z,9.77
2022-10-17T07:53:38.517Z,10.55
2022-10-17T07:56:09.024Z,12.88
2022-10-17T07:58:36.931Z,13.52
2022-10-17T08:03:31.054Z,11.05
2022-10-17T08:06:01.484Z,9.98
2022-10-17T08:08:28.306Z,11.32
2022-10-17T08:10:56.476Z,10.07
2022-10-17T08:13:23.239Z,8.07
2022-10-17T08:15:49.907Z,10.02
2022-10-17T08:18:17.630Z,12.02
2022-10-17T08:20:44.254Z,11.30
2022-10-17T08:23:10.787Z,12.75
2022-10-17T08:25:40.011Z,11.02
2022-10-17T08:30:34.356Z,15.20
2022-10-17T08:33:03.920Z,11.82
2022-10-17T08:35:30.376Z,11.35
2022-10-17T08:37:59.363Z,11.75
2022-10-17T08:40:29.112Z,11.23
2022-10-17T08:43:03.568Z,11.85
2022-10-17T08:45:39.508Z,13.70
2022-10-17T08:48:12.220Z,11.75
2022-10-17T08:50:38.547Z,11.18
2022-10-17T08:53:15.831Z,11.57
2022-10-17T08:55:53.343Z,12.45
2022-10-17T08:58:32.441Z,9.85
2022-10-17T09:01:30.022Z,10.80
2022-10-17T09:04:24.830Z,13.13
2022-10-17T09:07:19.287Z,12.07
2022-10-17T09:10:11.548Z,14.32
2022-10-17T09:15:43.511Z,12.60
2022-10-17T09:18:31.882Z,9.85
2022-10-17T09:21:25.140Z,15.80
2022-10-17T09:24:03.820Z,14.32
2022-10-17T09:26:38.917Z,14.43
2022-10-17T09:29:15.348Z,18.15
2022-10-17T09:31:49.142Z,10.90
2022-10-17T09:34:16.103Z,11.00
2022-10-17T09:36:43.904Z,22.13
2022-10-17T09:39:18.984Z,12.07
2022-10-17T09:41:52.903Z,13.85
2022-10-17T09:44:21.991Z,11.00
2022-10-17T09:47:22.603Z,13.90
2022-10-17T09:49:50.339Z,12.07
2022-10-17T09:52:39.151Z,11.23
2022-10-17T09:55:17.771Z,10.65
2022-10-17T09:57:55.315Z,11.27
2022-10-17T10:00:34.033Z,11.10
2022-10-17T10:03:30.106Z,12.32
2022-10-17T10:06:15.413Z,12.50
2022-10-17T10:08:58.606Z,14.10
2022-10-17T10:11:45.152Z,13.13
2022-10-17T10:14:35.851Z,11.98
2022-10-17T10:17:04.669Z,17.17
2022-10-17T10:19:36.683Z,12.63
2022-10-17T10:22:17.301Z,11.20
2022-10-17T10:24:43.835Z,11.05
2022-10-17T10:27:16.960Z,9.45
2022-10-17T10:29:52.716Z,12.55
2022-10-17T10:32:24.187Z,12.65
2022-10-17T10:35:00.823Z,13.23
2022-10-17T10:37:33.597Z,12.82
2022-10-17T10:40:29.026Z,11.45
2022-10-17T10:43:04.036Z,17.25
2022-10-17T10:45:53.367Z,13.57
2022-10-17T10:48:44.678Z,12.73
2022-10-17T10:51:17.335Z,13.05
2022-10-17T10:54:10.136Z,13.05
2022-10-17T10:56:44.857Z,11.23
2022-10-17T10:59:20.759Z,10.18
2022-10-17T11:02:25.193Z,10.77
2022-10-17T11:05:06.388Z,11.57
2022-10-17T11:08:11.752Z,10.25
2022-10-17T11:10:55.302Z,9.25
2022-10-17T11:13:36.805Z,6.25
2022-10-17T11:16:23.440Z,6.88
2022-10-17T11:19:13.713Z,8.63
2022-10-17T11:22:05.224Z,5.65
2022-10-17T11:24:40.312Z,5.93
2022-10-17T11:27:07.829Z,3.92
2022-10-17T11:29:38.589Z,3.40
2022-10-17T11:32:15.403Z,2.30
2022-10-17T11:34:47.443Z,1.77
2022-10-17T11:37:18.651Z,3.17
2022-10-17T11:39:51.632Z,4.30
2022-10-17T11:42:27.538Z,2.67
2022-10-17T11:45:03.002Z,3.03
2022-10-17T11:47:39.426Z,1.48
2022-10-17T11:53:20.617Z,1.17
2022-10-17T11:55:47.797Z,1.60
2022-10-17T11:58:33.996Z,2.95
2022-10-17T12:01:30.275Z,1.63
2022-10-17T12:03:59.638Z,1.00
2022-10-17T12:06:47.571Z,4.07
2022-10-17T12:09:29.978Z,2.88
2022-10-17T12:12:02.393Z,1.00
2022-10-17T12:14:46.399Z,1.77
2022-10-17T12:17:35.376Z,1.00
2022-10-17T12:20:21.225Z,0.57
2022-10-17T12:22:51.128Z,2.03
2022-10-17T12:25:33.854Z,1.15
2022-10-17T12:28:06.357Z,2.08
2022-10-17T12:30:33.962Z,1.85
2022-10-17T12:33:22.232Z,4.72
2022-10-17T12:35:51.117Z,2.83
2022-10-17T12:38:17.499Z,2.22
2022-10-17T12:40:48.506Z,3.35
2022-10-17T12:43:15.432Z,6.38
2022-10-17T12:45:57.975Z,2.90
2022-10-17T12:48:33.826Z,2.80
2022-10-17T12:51:30.866Z,4.40
2022-10-17T12:54:07.031Z,3.63
2022-10-17T12:56:46.712Z,5.35
2022-10-17T12:59:16.056Z,7.50
2022-10-17T13:01:46.521Z,4.88
2022-10-17T13:04:13.361Z,6.45
2022-10-17T13:06:53.959Z,5.60
2022-10-17T13:09:31.151Z,4.70
2022-10-17T13:12:00.715Z,5.20
2022-10-17T13:14:28.555Z,5.00
2022-10-17T13:16:57.520Z,7.25
2022-10-17T13:19:27.190Z,4.43
2022-10-17T13:21:59.863Z,4.75
2022-10-17T13:24:37.395Z,4.93
2022-10-17T13:27:05.150Z,4.05
2022-10-17T13:29:32.946Z,4.50
2022-10-17T13:32:03.814Z,6.50
2022-10-17T13:34:32.372Z,4.00
2022-10-17T13:37:05.018Z,6.43
2022-10-17T13:39:54.453Z,5.28
2022-10-17T13:42:36.624Z,7.22
2022-10-17T13:45:03.896Z,3.08
2022-10-17T13:47:39.233Z,7.50
2022-10-17T13:50:12.684Z,7.40
2022-10-17T13:52:47.661Z,5.53
2022-10-17T13:55:20.193Z,5.13
2022-10-17T13:57:47.205Z,3.53
2022-10-17T14:00:21.355Z,4.70
2022-10-17T14:05:20.779Z,5.95
2022-10-17T14:08:12.476Z,4.43
2022-10-17T14:10:42.185Z,6.82
2022-10-17T14:13:20.909Z,7.63
2022-10-17T14:15:47.547Z,5.68
2022-10-17T14:18:19.595Z,5.82
2022-10-17T14:21:29.257Z,9.93
2022-10-17T14:23:43.521Z,7.53
2022-10-17T14:26:21.088Z,5.18
2022-10-17T14:28:51.731Z,4.95
2022-10-17T14:31:25.679Z,7.00
2022-10-17T14:36:21.534Z,4.00
2022-10-17T14:38:51.819Z,3.75
2022-10-17T14:41:42.483Z,13.95
2022-10-17T14:44:18.884Z,5.78
2022-10-17T14:46:50.751Z,6.63
2022-10-17T14:49:25.343Z,4.70
2022-10-17T14:52:18.616Z,10.07
2022-10-17T14:54:49.764Z,6.82
2022-10-17T14:57:24.065Z,6.53
2022-10-17T14:59:55.093Z,6.70
2022-10-17T15:02:23.880Z,4.25
2022-10-17T15:04:50.274Z,5.85
2022-10-17T15:07:18.053Z,8.45
2022-10-17T15:09:47.185Z,7.30
2022-10-17T15:12:19.415Z,4.30
2022-10-17T15:14:47.868Z,4.20
2022-10-17T15:17:18.875Z,8.18
2022-10-17T15:19:45.369Z,4.55
2022-10-17T15:22:11.785Z,5.07
2022-10-17T15:24:38.326Z,5.47
2022-10-17T15:27:13.805Z,4.38
2022-10-17T15:29:40.212Z,5.50
2022-10-17T15:32:06.571Z,7.10
2022-10-17T15:34:32.951Z,6.78
2022-10-17T15:36:59.511Z,4.95
2022-10-17T15:39:26.073Z,7.15
2022-10-17T15:41:52.523Z,8.27
2022-10-17T15:44:18.913Z,5.45
2022-10-17T15:46:45.348Z,6.05
2022-10-17T15:49:14.258Z,5.20
2022-10-17T15:51:41.270Z,5.28
2022-10-17T15:54:07.712Z,5.85
2022-10-17T15:56:38.272Z,6.60
2022-10-17T15:59:07.708Z,5.35
2022-10-17T16:01:34.810Z,5.28
2022-10-17T16:04:01.589Z,4.15
2022-10-17T16:06:28.367Z,5.65
2022-10-17T16:08:55.040Z,5.10
2022-10-17T16:11:30.533Z,6.28
2022-10-17T16:13:59.361Z,7.47
2022-10-17T16:16:26.266Z,8.20
2022-10-17T16:18:52.799Z,5.80
2022-10-17T16:21:21.288Z,8.02
2022-10-17T16:23:47.784Z,6.22
2022-10-17T16:26:15.929Z,5.18
2022-10-17T16:28:46.057Z,8.35
2022-10-17T16:31:29.752Z,9.52
2022-10-17T16:33:58.115Z,6.45
2022-10-17T16:36:25.216Z,10.88
2022-10-17T16:38:53.867Z,5.13
2022-10-17T16:41:24.061Z,6.18
2022-10-17T16:43:52.137Z,5.03
2022-10-17T16:46:19.410Z,6.75
2022-10-17T16:48:46.623Z,6.88
2022-10-17T16:51:14.391Z,10.05
2022-10-17T16:53:43.884Z,8.55
2022-10-17T16:56:13.189Z,7.30
2022-10-17T16:58:40.543Z,9.93
2022-10-17T17:01:10.192Z,7.85
2022-10-17T17:03:38.340Z,6.13
2022-10-17T17:06:06.662Z,7.85
2022-10-17T17:08:34.183Z,4.72
2022-10-17T17:11:00.793Z,6.40
2022-10-17T17:13:29.008Z,7.22
2022-10-17T17:16:07.275Z,6.00
2022-10-17T17:18:34.560Z,6.93
2022-10-17T17:21:03.065Z,5.80
2022-10-17T17:23:30.150Z,11.70
2022-10-17T17:26:01.532Z,5.20
2022-10-17T17:28:28.711Z,4.88
2022-10-17T17:30:55.566Z,7.65
2022-10-17T17:33:23.304Z,8.27
2022-10-17T17:36:01.070Z,9.77
2022-10-17T17:38:32.594Z,6.32
2022-10-17T17:40:59.441Z,7.65
2022-10-17T17:43:26.272Z,7.68
2022-10-17T17:45:52.995Z,5.78
2022-10-17T17:48:22.069Z,5.72
2022-10-17T17:50:48.994Z,8.25
2022-10-17T17:53:17.694Z,7.10
2022-10-17T17:55:44.942Z,8.85
2022-10-17T17:58:12.344Z,7.95
2022-10-17T18:00:40.551Z,11.75
2022-10-17T18:03:07.432Z,8.27
2022-10-17T18:05:34.269Z,8.00
2022-10-17T18:08:01.725Z,8.13
2022-10-17T18:10:29.345Z,8.77
2022-10-17T18:12:55.864Z,6.90
2022-10-17T18:15:22.273Z,9.05
2022-10-17T18:17:49.165Z,6.22
2022-10-17T18:20:15.721Z,8.35
2022-10-17T18:22:42.226Z,8.88
2022-10-17T18:25:08.895Z,10.00
2022-10-17T18:27:35.331Z,7.78
2022-10-17T18:30:01.801Z,10.00
2022-10-17T18:32:31.422Z,10.05
2022-10-17T18:34:59.648Z,11.48
2022-10-17T18:39:55.261Z,6.28
2022-10-17T18:42:21.728Z,4.88
2022-10-17T18:44:48.181Z,7.60
2022-10-17T18:47:14.655Z,7.53
2022-10-17T18:49:41.054Z,8.57
2022-10-17T18:52:07.474Z,8.02
2022-10-17T18:54:34.685Z,9.15
2022-10-17T18:57:01.317Z,12.45
2022-10-17T18:59:28.636Z,8.77
2022-10-17T19:01:55.168Z,9.45
2022-10-17T19:04:23.180Z,8.77
2022-10-17T19:06:50.483Z,8.25
2022-10-17T19:09:17.047Z,8.13
2022-10-17T19:11:43.733Z,6.97
2022-10-17T19:14:15.038Z,6.22
2022-10-17T19:16:48.123Z,7.78
2022-10-17T19:19:20.311Z,7.60
2022-10-17T19:21:48.231Z,8.63
2022-10-17T19:24:17.767Z,7.60
2022-10-17T19:26:53.981Z,10.80
2022-10-17T19:29:22.395Z,7.03
2022-10-17T19:31:49.265Z,8.50
2022-10-17T19:34:16.191Z,10.43
2022-10-17T19:36:43.403Z,6.47
2022-10-17T19:39:14.006Z,6.20
2022-10-17T19:41:42.495Z,9.02
2022-10-17T19:44:09.318Z,7.75
2022-10-17T19:46:35.880Z,7.65
2022-10-17T19:49:03.058Z,8.38
2022-10-17T19:51:29.825Z,7.25
2022-10-17T19:54:00.214Z,10.32
2022-10-17T19:56:28.816Z,11.38
2022-10-17T19:58:56.904Z,8.65
2022-10-17T20:01:25.930Z,8.70
2022-10-17T20:03:53.204Z,10.40
2022-10-17T20:06:20.199Z,8.30
2022-10-17T20:08:47.967Z,9.93
2022-10-17T20:11:17.824Z,11.75
2022-10-17T20:13:44.908Z,11.63
2022-10-17T20:16:18.335Z,10.27
2022-10-17T20:18:44.895Z,7.72
2022-10-17T20:21:14.320Z,13.55
2022-10-17T20:23:41.655Z,7.20
2022-10-17T20:26:25.986Z,9.63
2022-10-17T20:29:01.251Z,10.63
2022-10-17T20:31:28.372Z,8.13
2022-10-17T20:33:56.169Z,13.10
2022-10-17T20:36:23.550Z,7.68
2022-10-17T20:38:55.499Z,15.25
2022-10-17T20:41:26.046Z,24.77
2022-10-17T20:43:56.359Z,13.10
2022-10-17T20:46:36.325Z,11.45
2022-10-17T20:49:07.879Z,9.73
2022-10-17T20:51:35.557Z,10.13
2022-10-17T20:54:03.086Z,12.68
2022-10-17T20:56:31.561Z,10.25
2022-10-17T20:59:00.550Z,8.27
2022-10-17T21:01:28.518Z,12.38
2022-10-17T21:06:37.371Z,10.00
2022-10-17T21:09:05.078Z,12.20
2022-10-17T21:11:31.826Z,8.48
2022-10-17T21:14:03.520Z,11.98
2022-10-17T21:16:32.077Z,8.38
2022-10-17T21:18:58.983Z,12.98
2022-10-17T21:21:31.086Z,9.35
2022-10-17T21:24:00.710Z,8.27
2022-10-17T21:26:27.644Z,9.25
2022-10-17T21:28:54.537Z,17.20
2022-10-17T21:31:26.144Z,11.23
2022-10-17T21:33:55.616Z,11.82
2022-10-17T21:36:23.148Z,14.23
2022-10-17T21:38:51.618Z,10.07
2022-10-17T21:41:21.880Z,10.00
2022-10-17T21:43:52.815Z,13.05
2022-10-17T21:46:20.041Z,12.98
2022-10-17T21:48:47.883Z,12.00
2022-10-17T21:51:16.508Z,11.25
2022-10-17T21:53:43.788Z,12.05
2022-10-17T21:56:16.606Z,14.32
2022-10-17T21:58:43.596Z,12.45
2022-10-17T22:01:15.355Z,11.73
2022-10-17T22:03:46.690Z,17.23
2022-10-17T22:09:15.506Z,15.10
2022-10-17T22:11:45.450Z,11.27
2022-10-17T22:14:14.778Z,14.35
2022-10-17T22:16:41.587Z,16.17
2022-10-17T22:19:09.133Z,11.38
2022-10-17T22:21:37.501Z,11.10
2022-10-17T22:24:07.546Z,11.65
2022-10-17T22:26:36.275Z,14.88
2022-10-17T22:29:04.298Z,15.75
2022-10-17T22:31:31.202Z,11.32
2022-10-17T22:33:57.707Z,12.73
2022-10-17T22:36:24.185Z,22.73
2022-10-17T22:38:50.682Z,14.07
2022-10-17T22:41:17.562Z,17.42
2022-10-17T22:43:44.392Z,16.35
2022-10-17T22:46:13.607Z,13.07
2022-10-17T22:48:40.218Z,15.65
2022-10-17T22:51:06.807Z,14.90
2022-10-17T22:53:35.194Z,16.67
2022-10-17T22:56:14.270Z,18.38
2022-10-17T22:58:40.925Z,13.93
2022-10-17T23:01:10.328Z,13.13
2022-10-17T23:03:36.814Z,16.23
2022-10-17T23:06:03.778Z,13.55
2022-10-17T23:08:30.276Z,14.98
2022-10-17T23:10:56.795Z,19.38
2022-10-17T23:13:23.367Z,11.75
2022-10-17T23:15:52.670Z,13.93
2022-10-17T23:18:19.748Z,14.63
2022-10-17T23:20:46.343Z,14.45
2022-10-17T23:23:13.348Z,13.90
2022-10-17T23:25:39.881Z,16.75
2022-10-17T23:28:08.058Z,16.42
2022-10-17T23:30:34.883Z,13.40
2022-10-17T23:33:01.283Z,17.58
2022-10-17T23:35:27.896Z,18.65
2022-10-17T23:37:54.346Z,14.25
2022-10-17T23:40:20.946Z,18.65
2022-10-17T23:42:47.458Z,18.63
2022-10-17T23:45:13.889Z,17.40
2022-10-17T23:47:40.348Z,17.65
2022-10-17T23:50:07.151Z,16.25
2022-10-17T23:52:33.562Z,15.48
2022-10-17T23:55:00.012Z,14.23
2022-10-17T23:57:26.604Z,15.88
2022-10-17T23:59:53.114Z,15.27
